Time;durP1;ratioP1;P1;durP2;ratioP2;P2;SDS_P1;SDS_P2;PMS_P1;PMS_P2;Temp;Humidity;BMP_temperature;BMP_pressure;BME280_temperature;BME280_humidity;BME280_pressure;Samples;Min_cycle;Max_cycle;Signal;HPM_P1;HPM_P2
2021/04/04 00:01:17;;;;;;;12.37;4.20;;;;;;;;;;4991870;28;20334;-71
2021/04/04 00:04:01;;;;;;;14.30;4.93;;;;;;;;;;5005510;28;20296;-71
2021/04/04 00:06:47;;;;;;;14.30;4.63;;;;;;;;;;5010024;28;20221;-71
2021/04/04 00:09:31;;;;;;;20.00;4.73;;;;;;;;;;5011551;28;20273;-71
2021/04/04 00:12:16;;;;;;;10.70;4.70;;;;;;;;;;5005903;28;20209;-71
2021/04/04 00:15:00;;;;;;;20.33;4.63;;;;;;;;;;4997335;28;20214;-71
2021/04/04 00:17:45;;;;;;;16.57;4.67;;;;;;;;;;5002547;28;20577;-71
2021/04/04 00:20:29;;;;;;;13.97;4.33;;;;;;;;;;5010722;28;20209;-70
2021/04/04 00:23:15;;;;;;;15.87;4.60;;;;;;;;;;5002001;28;20561;-70
2021/04/04 00:25:59;;;;;;;11.97;4.40;;;;;;;;;;4991047;28;20236;-71
2021/04/04 00:28:44;;;;;;;14.07;4.53;;;;;;;;;;4991786;28;20234;-70
2021/04/04 00:31:28;;;;;;;19.43;4.60;;;;;;;;;;4991738;28;20267;-70
2021/04/04 00:34:13;;;;;;;15.37;4.77;;;;;;;;;;4991413;28;20352;-71
2021/04/04 00:36:58;;;;;;;15.57;5.10;;;;;;;;;;4991170;28;20328;-70
2021/04/04 00:39:43;;;;;;;19.25;5.25;;;;;;;;;;4990938;28;20569;-70
2021/04/04 00:42:27;;;;;;;15.40;4.60;;;;;;;;;;4991560;28;20254;-71
2021/04/04 00:45:13;;;;;;;17.13;4.93;;;;;;;;;;4999717;28;20204;-71
2021/04/04 00:47:58;;;;;;;15.33;4.80;;;;;;;;;;4995077;28;20234;-70
2021/04/04 00:50:42;;;;;;;15.53;4.87;;;;;;;;;;4991450;28;20574;-70
2021/04/04 00:53:27;;;;;;;16.23;4.33;;;;;;;;;;4994015;28;20205;-70
2021/04/04 00:56:13;;;;;;;15.00;4.43;;;;;;;;;;4994744;28;20422;-70
2021/04/04 00:58:58;;;;;;;13.97;4.57;;;;;;;;;;5014788;28;20217;-70
2021/04/04 01:01:43;;;;;;;16.07;4.60;;;;;;;;;;4996169;28;20253;-70
2021/04/04 01:04:27;;;;;;;18.37;5.03;;;;;;;;;;4995056;28;20209;-70
2021/04/04 01:07:12;;;;;;;14.40;4.33;;;;;;;;;;5006515;28;20243;-70
2021/04/04 01:09:56;;;;;;;15.57;4.77;;;;;;;;;;5014102;28;20230;-70
2021/04/04 01:12:46;;;;;;;15.45;4.70;;;;;;;;;;5002218;28;20457;-70
2021/04/04 01:15:32;;;;;;;15.60;4.47;;;;;;;;;;5012226;28;20214;-70
2021/04/04 01:18:20;;;;;;;15.97;4.37;;;;;;;;;;5005032;28;20270;-70
2021/04/04 01:21:08;;;;;;;14.90;4.40;;;;;;;;;;5003420;28;20206;-71
2021/04/04 01:24:05;;;;;;;11.57;4.00;;;;;;;;;;4999543;28;21087;-70
2021/04/04 01:26:56;;;;;;;16.40;4.70;;;;;;;;;;5012373;28;20539;-70
2021/04/04 01:29:42;;;;;;;16.57;4.73;;;;;;;;;;5002911;28;20697;-70
2021/04/04 01:32:27;;;;;;;18.77;4.93;;;;;;;;;;5011219;28;20205;-70
2021/04/04 01:35:12;;;;;;;15.00;4.60;;;;;;;;;;5013736;28;20210;-70
2021/04/04 01:37:58;;;;;;;13.20;4.30;;;;;;;;;;5012990;28;20228;-70
2021/04/04 01:40:44;;;;;;;15.30;4.80;;;;;;;;;;5005290;28;20693;-70
2021/04/04 01:43:29;;;;;;;15.70;4.50;;;;;;;;;;5003981;28;20257;-71
2021/04/04 01:46:14;;;;;;;17.07;4.50;;;;;;;;;;5006260;28;20265;-70
2021/04/04 01:48:59;;;;;;;14.97;4.70;;;;;;;;;;5000788;28;20272;-70
2021/04/04 01:51:44;;;;;;;11.60;4.40;;;;;;;;;;5004223;28;20210;-70
2021/04/04 01:54:31;;;;;;;16.40;4.77;;;;;;;;;;5013191;28;20241;-71
2021/04/04 01:57:15;;;;;;;14.33;4.70;;;;;;;;;;5007982;28;20221;-71
2021/04/04 02:00:00;;;;;;;15.20;4.87;;;;;;;;;;5004722;28;20419;-70
2021/04/04 02:02:46;;;;;;;14.43;4.60;;;;;;;;;;5004820;28;20217;-70
2021/04/04 02:05:30;;;;;;;16.47;4.63;;;;;;;;;;5005255;28;20213;-70
2021/04/04 02:08:15;;;;;;;11.77;4.13;;;;;;;;;;5005188;28;20237;-70
2021/04/04 02:11:01;;;;;;;15.07;4.50;;;;;;;;;;5005318;28;20209;-70
2021/04/04 02:13:46;;;;;;;14.63;5.25;;;;;;;;;;5011963;28;20450;-70
2021/04/04 02:16:30;;;;;;;13.03;4.33;;;;;;;;;;4998326;28;20688;-70
2021/04/04 02:19:17;;;;;;;13.47;4.40;;;;;;;;;;5007376;28;20206;-70
2021/04/04 02:22:02;;;;;;;15.63;4.63;;;;;;;;;;5009741;28;20748;-70
2021/04/04 02:24:46;;;;;;;14.10;4.20;;;;;;;;;;4997215;28;20250;-70
2021/04/04 02:27:31;;;;;;;11.73;4.30;;;;;;;;;;5011083;28;20258;-70
2021/04/04 02:30:16;;;;;;;13.73;4.40;;;;;;;;;;5005165;28;20264;-70
2021/04/04 02:33:02;;;;;;;9.27;3.93;;;;;;;;;;4993587;28;20254;-70
2021/04/04 02:35:49;;;;;;;14.37;4.40;;;;;;;;;;4994016;28;20827;-70
2021/04/04 02:38:34;;;;;;;13.53;4.00;;;;;;;;;;4993204;28;20306;-71
2021/04/04 02:41:18;;;;;;;14.97;4.27;;;;;;;;;;4993457;28;20246;-70
2021/04/04 02:44:05;;;;;;;11.17;4.13;;;;;;;;;;5012970;28;20206;-71
2021/04/04 02:46:52;;;;;;;15.87;4.33;;;;;;;;;;5012270;28;20245;-70
2021/04/04 02:49:37;;;;;;;12.60;3.90;;;;;;;;;;5012859;28;20764;-70
2021/04/04 02:52:23;;;;;;;13.93;3.97;;;;;;;;;;5012936;28;20229;-70
2021/04/04 02:55:10;;;;;;;14.63;4.63;;;;;;;;;;5003840;28;20202;-70
2021/04/04 02:57:55;;;;;;;13.27;4.37;;;;;;;;;;5007084;28;20593;-70
2021/04/04 03:00:40;;;;;;;19.80;4.53;;;;;;;;;;5008351;28;20214;-70
2021/04/04 03:03:26;;;;;;;14.07;4.37;;;;;;;;;;5006088;28;20203;-70
2021/04/04 03:06:11;;;;;;;12.63;3.83;;;;;;;;;;5000228;28;20739;-71
2021/04/04 03:08:57;;;;;;;11.90;3.77;;;;;;;;;;5009819;28;20212;-70
2021/04/04 03:11:42;;;;;;;12.70;4.07;;;;;;;;;;5012057;28;20880;-70
2021/04/04 03:14:27;;;;;;;14.03;3.97;;;;;;;;;;5000871;28;20242;-70
2021/04/04 03:17:12;;;;;;;14.77;3.80;;;;;;;;;;5002692;28;20638;-70
2021/04/04 03:19:56;;;;;;;13.03;3.63;;;;;;;;;;5003056;28;20209;-70
2021/04/04 03:22:42;;;;;;;13.60;4.23;;;;;;;;;;5000557;28;20209;-70
2021/04/04 03:25:28;;;;;;;12.50;3.63;;;;;;;;;;5004986;28;20213;-70
2021/04/04 03:28:14;;;;;;;14.00;3.83;;;;;;;;;;5007945;28;20631;-70
2021/04/04 03:30:59;;;;;;;14.77;4.40;;;;;;;;;;5000150;28;20296;-70
2021/04/04 03:33:44;;;;;;;14.47;4.07;;;;;;;;;;4992279;28;20266;-70
2021/04/04 03:36:28;;;;;;;12.47;3.83;;;;;;;;;;4995664;28;20245;-70
2021/04/04 03:39:13;;;;;;;11.97;3.90;;;;;;;;;;5001134;28;20209;-70
2021/04/04 03:41:59;;;;;;;11.10;3.90;;;;;;;;;;4991901;28;20206;-71
2021/04/04 03:44:44;;;;;;;10.83;3.80;;;;;;;;;;5005537;28;20566;-70
2021/04/04 03:47:29;;;;;;;13.73;3.73;;;;;;;;;;5009678;28;20604;-70
2021/04/04 03:50:14;;;;;;;12.70;3.80;;;;;;;;;;5001070;28;20673;-70
2021/04/04 03:52:59;;;;;;;12.23;3.90;;;;;;;;;;5007057;28;20209;-70
2021/04/04 03:55:44;;;;;;;16.30;4.10;;;;;;;;;;5005035;28;20930;-70
2021/04/04 03:58:30;;;;;;;13.50;4.10;;;;;;;;;;4991704;28;20318;-70
2021/04/04 04:01:15;;;;;;;11.70;3.57;;;;;;;;;;4991942;28;20203;-70
2021/04/04 04:04:00;;;;;;;12.57;3.47;;;;;;;;;;4991844;28;20241;-70
2021/04/04 04:06:45;;;;;;;12.13;3.20;;;;;;;;;;4991485;28;20591;-70
2021/04/04 04:09:30;;;;;;;10.63;3.70;;;;;;;;;;4992012;28;20258;-70
2021/04/04 04:12:15;;;;;;;8.47;3.37;;;;;;;;;;4991681;28;20206;-70
2021/04/04 04:15:01;;;;;;;11.13;3.90;;;;;;;;;;4991776;28;20202;-70
2021/04/04 04:17:47;;;;;;;12.83;3.77;;;;;;;;;;4991787;28;20230;-70
2021/04/04 04:20:31;;;;;;;9.60;3.50;;;;;;;;;;4992004;28;20210;-70
2021/04/04 04:23:16;;;;;;;9.80;3.80;;;;;;;;;;4991714;28;20266;-70
2021/04/04 04:26:01;;;;;;;10.47;3.30;;;;;;;;;;4992985;28;20254;-70
2021/04/04 04:28:45;;;;;;;9.90;3.60;;;;;;;;;;5002833;28;20361;-70
2021/04/04 04:31:32;;;;;;;14.60;3.63;;;;;;;;;;4992729;28;20264;-70
2021/04/04 04:34:16;;;;;;;14.32;3.67;;;;;;;;;;4999116;28;20407;-70
2021/04/04 04:37:01;;;;;;;11.37;3.80;;;;;;;;;;5001859;28;20241;-70
2021/04/04 04:39:45;;;;;;;11.80;3.33;;;;;;;;;;4991496;28;20567;-70
2021/04/04 04:42:31;;;;;;;12.90;3.53;;;;;;;;;;5007015;28;20278;-70
2021/04/04 04:45:16;;;;;;;11.23;3.37;;;;;;;;;;5010730;28;20352;-70
2021/04/04 04:48:03;;;;;;;9.73;3.57;;;;;;;;;;5009579;28;20624;-70
2021/04/04 04:50:48;;;;;;;10.83;3.27;;;;;;;;;;4999822;28;20672;-70
2021/04/04 04:53:32;;;;;;;13.97;3.77;;;;;;;;;;4999842;28;20269;-70
2021/04/04 04:56:17;;;;;;;10.57;3.63;;;;;;;;;;5001998;28;20217;-70
2021/04/04 04:59:02;;;;;;;11.07;3.37;;;;;;;;;;5010327;28;20213;-70
2021/04/04 05:01:47;;;;;;;13.10;4.10;;;;;;;;;;4995570;28;20337;-70
2021/04/04 05:04:33;;;;;;;11.80;4.20;;;;;;;;;;5010080;28;20212;-70
2021/04/04 05:07:18;;;;;;;11.37;3.83;;;;;;;;;;5001701;28;20787;-70
2021/04/04 05:10:04;;;;;;;13.90;4.28;;;;;;;;;;5004200;28;20465;-70
2021/04/04 05:12:51;;;;;;;7.80;3.17;;;;;;;;;;5002118;28;20210;-70
2021/04/04 05:15:36;;;;;;;11.17;3.77;;;;;;;;;;4991283;28;20206;-70
2021/04/04 05:18:21;;;;;;;17.77;4.10;;;;;;;;;;5000808;28;20233;-70
2021/04/04 05:21:06;;;;;;;9.13;3.47;;;;;;;;;;4991075;28;20713;-69
2021/04/04 05:23:54;;;;;;;11.50;3.50;;;;;;;;;;5000455;28;20598;-71
2021/04/04 05:26:39;;;;;;;11.37;3.63;;;;;;;;;;5010018;28;20227;-70
2021/04/04 05:29:24;;;;;;;9.63;3.20;;;;;;;;;;5009858;28;20198;-70
2021/04/04 05:32:10;;;;;;;12.17;3.77;;;;;;;;;;5010389;28;20439;-70
2021/04/04 05:34:55;;;;;;;10.70;3.83;;;;;;;;;;5010787;28;20211;-70
2021/04/04 05:37:42;;;;;;;11.97;3.50;;;;;;;;;;5005836;28;20230;-70
2021/04/04 05:40:29;;;;;;;11.53;3.50;;;;;;;;;;4993059;28;20291;-70
2021/04/04 05:43:14;;;;;;;11.80;3.37;;;;;;;;;;5013565;28;20253;-70
2021/04/04 05:46:01;;;;;;;9.43;3.50;;;;;;;;;;5005965;28;20285;-70
2021/04/04 05:48:55;;;;;;;11.77;3.83;;;;;;;;;;5033231;28;20230;-70
2021/04/04 05:51:45;;;;;;;12.00;4.07;;;;;;;;;;5033469;28;20678;-70
2021/04/04 05:54:39;;;;;;;10.37;3.93;;;;;;;;;;5014902;28;20206;-70
2021/04/04 05:57:27;;;;;;;9.67;3.77;;;;;;;;;;4993039;28;20927;-70
2021/04/04 06:00:12;;;;;;;11.30;3.57;;;;;;;;;;4993464;28;20223;-70
2021/04/04 06:03:13;;;;;;;12.33;3.70;;;;;;;;;;4996215;28;20218;-70
2021/04/04 06:06:17;;;;;;;10.77;4.27;;;;;;;;;;4993548;28;20617;-70
2021/04/04 06:09:08;;;;;;;11.73;3.70;;;;;;;;;;4993875;28;20270;-70
2021/04/04 06:12:06;;;;;;;13.27;4.40;;;;;;;;;;4992395;28;20413;-70
2021/04/04 06:14:58;;;;;;;10.43;4.00;;;;;;;;;;4992124;28;20685;-70
2021/04/04 06:17:46;;;;;;;8.97;3.40;;;;;;;;;;4993499;28;20331;-70
2021/04/04 06:20:41;;;;;;;9.10;4.03;;;;;;;;;;4993844;28;20255;-70
2021/04/04 06:23:26;;;;;;;12.27;3.80;;;;;;;;;;4993852;28;20614;-71
2021/04/04 06:26:20;;;;;;;10.97;3.53;;;;;;;;;;4993751;28;20230;-72
2021/04/04 06:29:11;;;;;;;12.40;3.60;;;;;;;;;;4994021;28;20261;-73
2021/04/04 06:32:00;;;;;;;11.33;3.23;;;;;;;;;;5011486;28;20281;-67
2021/04/04 06:34:47;;;;;;;13.13;3.23;;;;;;;;;;5009973;28;20215;-68
2021/04/04 06:37:34;;;;;;;13.00;3.50;;;;;;;;;;4992671;28;20262;-69
2021/04/04 06:40:22;;;;;;;11.07;3.30;;;;;;;;;;5012013;28;20261;-69
2021/04/04 06:43:11;;;;;;;12.10;3.30;;;;;;;;;;5012829;28;20201;-73
2021/04/04 06:46:07;;;;;;;11.40;3.57;;;;;;;;;;5012267;28;20748;-70
2021/04/04 06:48:58;;;;;;;10.90;3.33;;;;;;;;;;5012581;28;20602;-73
2021/04/04 06:51:49;;;;;;;13.73;4.07;;;;;;;;;;5012150;28;20288;-71
2021/04/04 06:54:39;;;;;;;12.17;3.60;;;;;;;;;;5013157;28;20712;-72
2021/04/04 06:57:28;;;;;;;12.18;3.80;;;;;;;;;;5010982;28;20991;-72
2021/04/04 07:00:14;;;;;;;12.87;4.00;;;;;;;;;;5012263;28;20577;-71
2021/04/04 07:03:08;;;;;;;12.43;4.20;;;;;;;;;;5012359;28;20206;-70
2021/04/04 07:05:57;;;;;;;12.43;4.30;;;;;;;;;;5012124;28;20475;-71
2021/04/04 07:08:50;;;;;;;10.33;3.70;;;;;;;;;;5012177;28;20246;-70
2021/04/04 07:11:37;;;;;;;13.50;4.00;;;;;;;;;;5012175;28;20238;-69
2021/04/04 07:14:41;;;;;;;24.03;15.70;;;;;;;;;;5012305;28;20207;-68
2021/04/04 07:17:32;;;;;;;15.00;4.20;;;;;;;;;;5012121;28;20241;-68
2021/04/04 07:20:22;;;;;;;10.53;3.50;;;;;;;;;;5012279;28;20314;-69
2021/04/04 07:23:27;;;;;;;14.10;4.03;;;;;;;;;;5012296;28;20194;-70
2021/04/04 07:26:18;;;;;;;10.63;3.87;;;;;;;;;;5011259;28;20197;-71
2021/04/04 07:29:26;;;;;;;10.57;3.63;;;;;;;;;;5012292;28;20210;-70
2021/04/04 07:32:13;;;;;;;12.20;4.20;;;;;;;;;;4999340;28;20210;-70
2021/04/04 07:35:03;;;;;;;9.13;3.77;;;;;;;;;;5012100;28;20253;-69
2021/04/04 07:37:51;;;;;;;8.70;3.43;;;;;;;;;;5010345;28;20222;-68
2021/04/04 07:40:42;;;;;;;12.30;3.63;;;;;;;;;;4992165;28;20250;-69
2021/04/04 07:43:29;;;;;;;9.55;3.80;;;;;;;;;;4991003;28;20453;-68
2021/04/04 07:46:16;;;;;;;8.83;3.53;;;;;;;;;;4991533;28;20214;-69
2021/04/04 07:49:06;;;;;;;10.63;4.23;;;;;;;;;;4992067;28;20221;-69
2021/04/04 07:51:51;;;;;;;9.97;3.30;;;;;;;;;;4991816;28;20199;-69
2021/04/04 07:54:40;;;;;;;9.10;3.50;;;;;;;;;;4991790;28;20633;-69
2021/04/04 07:57:30;;;;;;;11.00;3.20;;;;;;;;;;4991247;28;20227;-71
2021/04/04 08:00:15;;;;;;;11.43;3.80;;;;;;;;;;4991958;28;20250;-68
2021/04/04 08:03:06;;;;;;;10.77;3.50;;;;;;;;;;4991352;28;20231;-69
2021/04/04 08:05:52;;;;;;;9.43;3.83;;;;;;;;;;4991966;28;20218;-69
2021/04/04 08:08:37;;;;;;;7.07;3.70;;;;;;;;;;4991854;28;20234;-69
2021/04/04 08:11:24;;;;;;;6.47;3.40;;;;;;;;;;4992577;28;20203;-70
2021/04/04 08:14:12;;;;;;;9.43;4.10;;;;;;;;;;4991034;28;20495;-69
2021/04/04 08:16:57;;;;;;;10.07;3.77;;;;;;;;;;4991179;28;20230;-69
2021/04/04 08:19:44;;;;;;;9.43;3.50;;;;;;;;;;4991538;28;20195;-70
2021/04/04 08:22:31;;;;;;;5.80;3.50;;;;;;;;;;4991419;28;20242;-68
2021/04/04 08:25:17;;;;;;;7.63;3.60;;;;;;;;;;4991482;28;20222;-69
2021/04/04 08:28:05;;;;;;;9.00;4.60;;;;;;;;;;4990257;28;20441;-69
2021/04/04 08:30:53;;;;;;;8.73;4.27;;;;;;;;;;4991493;28;20418;-69
2021/04/04 08:33:44;;;;;;;8.63;4.00;;;;;;;;;;4991060;28;20680;-71
2021/04/04 08:36:31;;;;;;;7.60;3.90;;;;;;;;;;4990783;28;20274;-70
2021/04/04 08:39:17;;;;;;;8.77;4.30;;;;;;;;;;5004164;28;20212;-71
2021/04/04 08:42:04;;;;;;;9.57;4.07;;;;;;;;;;5011033;28;20205;-71
2021/04/04 08:44:52;;;;;;;8.57;4.03;;;;;;;;;;5011058;28;20204;-69
2021/04/04 08:47:38;;;;;;;8.73;4.03;;;;;;;;;;5009996;28;20238;-71
2021/04/04 08:50:23;;;;;;;7.40;4.20;;;;;;;;;;5010820;28;20230;-71
2021/04/04 08:53:12;;;;;;;9.37;4.20;;;;;;;;;;5010831;28;20277;-71
2021/04/04 08:55:58;;;;;;;8.00;4.30;;;;;;;;;;5010303;28;20203;-71
2021/04/04 08:58:46;;;;;;;8.43;4.43;;;;;;;;;;5010816;28;20415;-71
2021/04/04 09:01:36;;;;;;;4.37;3.80;;;;;;;;;;5011356;28;20205;-69
2021/04/04 09:04:24;;;;;;;5.90;3.70;;;;;;;;;;5011188;28;20551;-72
2021/04/04 09:07:08;;;;;;;7.33;4.60;;;;;;;;;;5010117;28;20225;-72
2021/04/04 09:09:53;;;;;;;4.17;3.80;;;;;;;;;;5010624;28;20695;-72
2021/04/04 09:12:39;;;;;;;6.07;3.80;;;;;;;;;;5010563;28;20518;-71
2021/04/04 09:15:24;;;;;;;6.40;4.30;;;;;;;;;;5014705;28;20439;-71
2021/04/04 09:18:09;;;;;;;5.03;2.90;;;;;;;;;;5014195;28;20228;-72
2021/04/04 09:21:03;;;;;;;5.27;2.83;;;;;;;;;;5014471;28;20237;-72
2021/04/04 09:23:48;;;;;;;3.23;2.73;;;;;;;;;;5014265;28;20713;-71
2021/04/04 09:26:34;;;;;;;4.90;3.10;;;;;;;;;;5014161;28;20354;-73
2021/04/04 09:29:19;;;;;;;4.77;3.37;;;;;;;;;;5014295;28;20210;-73
2021/04/04 09:32:10;;;;;;;3.07;2.63;;;;;;;;;;5014047;28;20764;-72
2021/04/04 09:34:55;;;;;;;3.63;2.80;;;;;;;;;;5014182;28;20203;-71
2021/04/04 09:37:40;;;;;;;5.53;2.90;;;;;;;;;;5013400;28;20223;-74
2021/04/04 09:40:26;;;;;;;3.47;3.00;;;;;;;;;;4994473;28;20265;-72
2021/04/04 09:43:12;;;;;;;3.20;2.80;;;;;;;;;;4994789;28;20542;-72
2021/04/04 09:46:04;;;;;;;3.27;2.97;;;;;;;;;;4993578;28;20247;-72
2021/04/04 09:48:48;;;;;;;3.33;2.73;;;;;;;;;;4993985;28;20643;-72
2021/04/04 09:51:46;;;;;;;4.23;2.67;;;;;;;;;;4994330;28;20335;-71
2021/04/04 09:54:30;;;;;;;2.63;2.43;;;;;;;;;;4994143;28;20199;-74
2021/04/04 09:57:15;;;;;;;6.63;4.87;;;;;;;;;;4993801;28;20227;-73
2021/04/04 09:59:59;;;;;;;4.15;2.70;;;;;;;;;;4993412;28;20429;-72
2021/04/04 10:02:44;;;;;;;4.03;3.00;;;;;;;;;;4994061;28;20302;-75
2021/04/04 10:05:30;;;;;;;3.10;2.30;;;;;;;;;;4994311;28;20685;-74
2021/04/04 10:08:16;;;;;;;5.03;2.63;;;;;;;;;;4993388;28;20227;-75
2021/04/04 10:11:13;;;;;;;3.30;2.40;;;;;;;;;;4994044;28;20609;-72
2021/04/04 10:14:07;;;;;;;2.90;2.53;;;;;;;;;;4993681;28;20693;-73
2021/04/04 10:17:07;;;;;;;5.10;2.60;;;;;;;;;;5006350;28;20250;-73
2021/04/04 10:19:53;;;;;;;2.67;2.47;;;;;;;;;;5012715;28;20262;-73
2021/04/04 10:22:50;;;;;;;3.80;3.17;;;;;;;;;;5013317;28;20744;-73
2021/04/04 10:25:35;;;;;;;6.60;3.03;;;;;;;;;;5012560;28;20202;-73
2021/04/04 10:28:20;;;;;;;5.07;3.10;;;;;;;;;;5012973;28;20234;-73
2021/04/04 10:31:04;;;;;;;7.30;3.50;;;;;;;;;;5013270;28;20209;-73
2021/04/04 10:33:56;;;;;;;5.70;3.50;;;;;;;;;;5013266;28;20202;-71
2021/04/04 10:36:41;;;;;;;5.67;3.17;;;;;;;;;;5012387;28;20230;-71
2021/04/04 10:39:25;;;;;;;9.40;4.33;;;;;;;;;;5012811;28;20270;-71
2021/04/04 10:42:14;;;;;;;6.50;4.10;;;;;;;;;;5012854;28;20203;-72
2021/04/04 10:45:06;;;;;;;6.50;3.73;;;;;;;;;;5012864;28;20211;-69
2021/04/04 10:48:04;;;;;;;6.65;4.20;;;;;;;;;;5010701;28;20432;-67
2021/04/04 10:50:49;;;;;;;5.77;5.00;;;;;;;;;;5012067;28;20323;-73
2021/04/04 10:53:33;;;;;;;7.43;3.80;;;;;;;;;;5012833;28;20220;-74
2021/04/04 10:56:17;;;;;;;8.20;4.47;;;;;;;;;;5012281;28;20257;-72
2021/04/04 10:59:05;;;;;;;6.83;4.43;;;;;;;;;;5012837;28;20214;-72
2021/04/04 11:01:49;;;;;;;8.10;4.33;;;;;;;;;;5012493;28;20263;-76
2021/04/04 11:04:34;;;;;;;7.53;4.20;;;;;;;;;;5013055;28;20202;-73
2021/04/04 11:07:18;;;;;;;5.23;4.53;;;;;;;;;;4995467;28;20585;-71
2021/04/04 11:10:03;;;;;;;10.97;4.73;;;;;;;;;;4992457;28;20628;-71
2021/04/04 11:12:48;;;;;;;7.37;3.87;;;;;;;;;;5005537;28;20212;-71
2021/04/04 11:15:36;;;;;;;8.53;4.30;;;;;;;;;;4992577;28;20222;-72
2021/04/04 11:18:23;;;;;;;10.23;4.83;;;;;;;;;;4992429;28;20694;-71
2021/04/04 11:21:10;;;;;;;6.33;4.27;;;;;;;;;;4991943;28;20244;-72
2021/04/04 11:23:54;;;;;;;5.77;4.00;;;;;;;;;;4994361;28;20283;-71
2021/04/04 11:26:47;;;;;;;9.80;4.33;;;;;;;;;;4991110;28;20234;-70
2021/04/04 11:29:42;;;;;;;6.97;4.30;;;;;;;;;;4991676;28;20217;-71
2021/04/04 11:32:28;;;;;;;8.00;4.60;;;;;;;;;;4991934;28;20682;-71
2021/04/04 11:35:13;;;;;;;9.10;5.65;;;;;;;;;;4990459;28;20417;-70
2021/04/04 11:38:11;;;;;;;7.83;5.13;;;;;;;;;;4991997;28;20235;-71
2021/04/04 11:41:10;;;;;;;8.17;4.90;;;;;;;;;;4992281;28;20210;-69
2021/04/04 11:44:09;;;;;;;8.53;5.33;;;;;;;;;;4991708;28;20207;-69
2021/04/04 11:46:54;;;;;;;9.20;5.97;;;;;;;;;;4990774;28;20222;-70
2021/04/04 11:49:41;;;;;;;10.03;6.47;;;;;;;;;;4991051;28;20207;-70
2021/04/04 11:52:36;;;;;;;8.57;6.07;;;;;;;;;;4998999;28;20207;-70
2021/04/04 11:55:21;;;;;;;8.50;5.50;;;;;;;;;;5008974;28;20259;-72
2021/04/04 11:58:05;;;;;;;7.63;4.70;;;;;;;;;;5009275;28;20235;-71
2021/04/04 12:00:52;;;;;;;9.50;5.60;;;;;;;;;;4999180;28;20213;-69
2021/04/04 12:03:36;;;;;;;10.10;5.13;;;;;;;;;;4991622;28;20280;-71
2021/04/04 12:06:21;;;;;;;9.73;5.85;;;;;;;;;;4989782;28;20479;-71
2021/04/04 12:09:06;;;;;;;8.00;5.10;;;;;;;;;;4990911;28;20229;-71
2021/04/04 12:11:51;;;;;;;7.40;5.20;;;;;;;;;;4991734;28;20227;-70
2021/04/04 12:14:45;;;;;;;8.47;5.70;;;;;;;;;;5008921;28;20205;-70
2021/04/04 12:17:30;;;;;;;10.10;5.33;;;;;;;;;;5005230;28;20245;-71
2021/04/04 12:20:18;;;;;;;9.98;6.10;;;;;;;;;;5012422;28;20780;-71
2021/04/04 12:23:09;;;;;;;8.67;5.53;;;;;;;;;;5011854;28;20256;-72
2021/04/04 12:25:53;;;;;;;7.93;5.30;;;;;;;;;;5009615;28;20806;-71
2021/04/04 12:28:39;;;;;;;10.70;5.63;;;;;;;;;;5000771;28;20716;-71
2021/04/04 12:31:23;;;;;;;8.90;6.57;;;;;;;;;;5010999;28;20208;-71
2021/04/04 12:34:08;;;;;;;9.37;5.77;;;;;;;;;;4991565;28;20581;-70
2021/04/04 12:36:53;;;;;;;11.23;6.80;;;;;;;;;;4990712;28;20782;-71
2021/04/04 12:39:39;;;;;;;10.23;6.43;;;;;;;;;;4991806;28;20205;-71
2021/04/04 12:42:25;;;;;;;12.57;6.20;;;;;;;;;;4991608;28;20320;-71
2021/04/04 12:45:10;;;;;;;11.45;7.53;;;;;;;;;;5002442;28;20953;-72
2021/04/04 12:47:54;;;;;;;11.13;6.43;;;;;;;;;;5010477;28;20230;-71
2021/04/04 12:50:39;;;;;;;8.23;6.50;;;;;;;;;;5015015;28;20205;-72
2021/04/04 12:53:24;;;;;;;10.27;7.53;;;;;;;;;;5014947;28;20251;-71
2021/04/04 12:56:09;;;;;;;10.73;7.13;;;;;;;;;;5014590;28;20753;-71
2021/04/04 12:58:54;;;;;;;8.30;5.80;;;;;;;;;;5014929;28;20746;-72
2021/04/04 13:01:42;;;;;;;11.60;7.63;;;;;;;;;;5013486;28;20447;-72
2021/04/04 13:04:26;;;;;;;11.93;7.57;;;;;;;;;;5014875;28;20213;-72
2021/04/04 13:07:12;;;;;;;8.73;6.43;;;;;;;;;;5013787;28;20299;-72
2021/04/04 13:09:57;;;;;;;8.33;6.50;;;;;;;;;;5014473;28;20253;-72
2021/04/04 13:12:42;;;;;;;13.30;8.03;;;;;;;;;;5014647;28;20203;-73
2021/04/04 13:15:29;;;;;;;9.37;8.00;;;;;;;;;;5014571;28;20209;-73
2021/04/04 13:18:20;;;;;;;14.63;9.57;;;;;;;;;;5014101;28;20266;-72
2021/04/04 13:21:05;;;;;;;14.40;9.03;;;;;;;;;;5006531;28;20210;-72
2021/04/04 13:23:50;;;;;;;11.13;8.70;;;;;;;;;;5014481;28;20691;-72
2021/04/04 13:26:35;;;;;;;14.03;10.83;;;;;;;;;;5015328;28;20222;-70
2021/04/04 13:29:21;;;;;;;15.67;11.03;;;;;;;;;;5004259;28;20236;-69
2021/04/04 13:32:06;;;;;;;16.10;12.13;;;;;;;;;;5009866;28;20212;-70
2021/04/04 13:34:50;;;;;;;18.23;14.50;;;;;;;;;;5011902;28;20244;-70
2021/04/04 13:37:39;;;;;;;19.27;13.60;;;;;;;;;;5013233;28;20240;-70
2021/04/04 13:40:25;;;;;;;17.40;13.43;;;;;;;;;;5014011;28;20202;-70
2021/04/04 13:43:09;;;;;;;16.13;12.60;;;;;;;;;;5013894;28;20205;-70
2021/04/04 13:45:55;;;;;;;15.60;13.27;;;;;;;;;;5013433;28;20572;-70
2021/04/04 13:48:39;;;;;;;18.10;16.00;;;;;;;;;;5013456;28;20230;-70
2021/04/04 13:51:23;;;;;;;15.77;13.13;;;;;;;;;;4997329;28;20202;-70
2021/04/04 13:54:09;;;;;;;16.80;10.77;;;;;;;;;;4994108;28;20195;-70
2021/04/04 13:56:55;;;;;;;14.50;10.03;;;;;;;;;;5003086;28;20232;-70
2021/04/04 13:59:47;;;;;;;13.60;10.57;;;;;;;;;;4993502;28;20298;-70
2021/04/04 14:02:32;;;;;;;15.00;11.27;;;;;;;;;;4993802;28;20674;-70
2021/04/04 14:05:24;;;;;;;13.17;9.60;;;;;;;;;;5005653;28;20258;-71
2021/04/04 14:08:08;;;;;;;13.43;9.03;;;;;;;;;;5012589;28;20577;-70
2021/04/04 14:10:53;;;;;;;14.27;8.63;;;;;;;;;;5013563;28;20253;-71
2021/04/04 14:13:38;;;;;;;16.67;9.00;;;;;;;;;;5013333;28;20242;-70
2021/04/04 14:16:22;;;;;;;11.60;8.57;;;;;;;;;;5012846;28;20728;-70
2021/04/04 14:19:08;;;;;;;14.30;8.20;;;;;;;;;;5003781;28;20214;-70
2021/04/04 14:21:54;;;;;;;14.07;8.10;;;;;;;;;;4993637;28;20276;-70
2021/04/04 14:24:38;;;;;;;11.80;7.20;;;;;;;;;;5012961;28;20205;-70
2021/04/04 14:27:23;;;;;;;10.47;7.43;;;;;;;;;;5010447;28;20252;-70
2021/04/04 14:30:08;;;;;;;12.07;8.48;;;;;;;;;;5010347;28;20491;-70
2021/04/04 14:32:52;;;;;;;11.37;8.80;;;;;;;;;;5013269;28;20260;-70
2021/04/04 14:35:38;;;;;;;12.40;8.10;;;;;;;;;;5003703;28;20588;-70
2021/04/04 14:38:22;;;;;;;10.63;7.47;;;;;;;;;;4993110;28;21006;-71
2021/04/04 14:41:09;;;;;;;11.77;8.67;;;;;;;;;;5003199;28;20692;-70
2021/04/04 14:44:08;;;;;;;13.20;8.93;;;;;;;;;;5012681;28;20265;-70
2021/04/04 14:46:52;;;;;;;12.13;8.63;;;;;;;;;;4997564;28;20803;-70
2021/04/04 14:49:37;;;;;;;10.93;8.33;;;;;;;;;;4992894;28;20681;-70
2021/04/04 14:52:22;;;;;;;12.53;9.83;;;;;;;;;;4993182;28;20270;-70
2021/04/04 14:55:07;;;;;;;11.80;8.40;;;;;;;;;;5007261;28;20268;-70
2021/04/04 14:57:52;;;;;;;14.87;8.23;;;;;;;;;;4993943;28;20760;-71
2021/04/04 15:00:37;;;;;;;10.87;7.70;;;;;;;;;;4996542;28;20673;-70
2021/04/04 15:03:22;;;;;;;12.97;8.77;;;;;;;;;;4992957;28;20578;-70
2021/04/04 15:06:08;;;;;;;14.03;8.57;;;;;;;;;;5005811;28;20280;-70
2021/04/04 15:08:53;;;;;;;11.00;8.40;;;;;;;;;;4993015;28;20226;-70
2021/04/04 15:11:38;;;;;;;13.70;8.33;;;;;;;;;;4992537;28;20255;-71
2021/04/04 15:14:23;;;;;;;12.50;9.10;;;;;;;;;;4991551;28;20488;-70
2021/04/04 15:17:07;;;;;;;12.97;7.97;;;;;;;;;;5004113;28;20332;-70
2021/04/04 15:19:52;;;;;;;13.47;8.57;;;;;;;;;;5012224;28;20621;-70
2021/04/04 15:22:38;;;;;;;12.03;8.47;;;;;;;;;;5012170;28;20237;-70
2021/04/04 15:25:24;;;;;;;12.37;8.20;;;;;;;;;;5010244;28;20249;-70
2021/04/04 15:28:09;;;;;;;13.43;7.57;;;;;;;;;;4998153;28;20585;-72
2021/04/04 15:30:53;;;;;;;13.53;8.00;;;;;;;;;;5008505;28;20220;-72
2021/04/04 15:33:38;;;;;;;12.23;7.70;;;;;;;;;;5011613;28;20341;-71
2021/04/04 15:36:22;;;;;;;11.43;7.37;;;;;;;;;;4995846;28;20292;-75
2021/04/04 15:39:07;;;;;;;10.80;7.30;;;;;;;;;;5009358;28;20583;-75
2021/04/04 15:41:52;;;;;;;10.73;7.03;;;;;;;;;;5011524;28;20230;-76
2021/04/04 15:44:37;;;;;;;10.30;7.60;;;;;;;;;;5011653;28;20200;-73
2021/04/04 15:47:21;;;;;;;13.23;7.07;;;;;;;;;;5009714;28;20307;-71
2021/04/04 15:50:06;;;;;;;9.83;7.00;;;;;;;;;;5011435;28;20342;-71
2021/04/04 15:52:50;;;;;;;12.00;7.53;;;;;;;;;;5005854;28;20207;-72
2021/04/04 15:55:35;;;;;;;13.30;7.40;;;;;;;;;;5007855;28;20215;-71
2021/04/04 15:58:20;;;;;;;12.82;9.45;;;;;;;;;;5011089;28;20483;-71
2021/04/04 16:01:05;;;;;;;9.83;6.70;;;;;;;;;;5007686;28;20795;-71
2021/04/04 16:03:49;;;;;;;13.00;8.30;;;;;;;;;;4994449;28;20207;-71
2021/04/04 16:06:35;;;;;;;12.23;7.20;;;;;;;;;;4991430;28;20224;-72
2021/04/04 16:09:19;;;;;;;9.13;6.27;;;;;;;;;;4997694;28;20262;-71
2021/04/04 16:12:04;;;;;;;8.60;6.30;;;;;;;;;;5009450;28;20210;-73
2021/04/04 16:14:50;;;;;;;8.70;6.20;;;;;;;;;;5011209;28;20255;-73
2021/04/04 16:17:34;;;;;;;10.10;7.00;;;;;;;;;;5009767;28;20240;-72
2021/04/04 16:20:21;;;;;;;11.47;7.27;;;;;;;;;;5011386;28;20248;-74
2021/04/04 16:23:06;;;;;;;8.93;8.10;;;;;;;;;;5008902;28;20337;-71
2021/04/04 16:25:51;;;;;;;11.55;8.90;;;;;;;;;;4999130;28;20396;-72
2021/04/04 16:28:35;;;;;;;9.57;8.43;;;;;;;;;;5003422;28;20228;-69